createdAt,value
2023-04-19T00:00:49.697Z,2.18
2023-04-19T00:01:54.808Z,2.30
2023-04-19T00:03:10.535Z,2.52
2023-04-19T00:04:13.538Z,2.51
2023-04-19T00:05:20.242Z,2.31
2023-04-19T00:06:26.936Z,2.48
2023-04-19T00:07:36.164Z,2.32
2023-04-19T00:08:41.295Z,2.19
2023-04-19T00:09:46.410Z,2.61
2023-04-19T00:10:52.850Z,2.56
2023-04-19T00:13:17.180Z,2.18
2023-04-19T00:15:30.259Z,2.72
2023-04-19T00:16:40.727Z,2.46
2023-04-19T00:17:49.918Z,2.18
2023-04-19T00:21:51.507Z,2.31
2023-04-19T00:23:00.062Z,2.12
2023-04-19T00:24:06.855Z,2.27
2023-04-19T00:25:11.000Z,2.47
2023-04-19T00:26:15.473Z,2.18
2023-04-19T00:27:26.202Z,2.84
2023-04-19T00:28:38.237Z,2.06
2023-04-19T00:29:41.103Z,1.69
2023-04-19T00:30:46.322Z,1.83
2023-04-19T00:31:53.871Z,2.02
2023-04-19T00:34:26.721Z,2.53
2023-04-19T00:35:32.499Z,2.46
2023-04-19T00:36:40.831Z,1.98
2023-04-19T00:37:50.817Z,2.07
2023-04-19T00:39:04.166Z,2.19
2023-04-19T00:40:14.611Z,2.24
2023-04-19T00:41:46.007Z,2.12
2023-04-19T00:42:50.772Z,2.23
2023-04-19T00:43:57.334Z,2.41
2023-04-19T00:45:03.373Z,2.29
2023-04-19T00:46:15.780Z,2.27
2023-04-19T00:47:18.495Z,2.65
2023-04-19T00:48:26.779Z,2.18
2023-04-19T00:49:50.596Z,2.34
2023-04-19T00:50:56.225Z,2.58
2023-04-19T00:54:55.480Z,2.43
2023-04-19T00:57:31.819Z,2.80
2023-04-19T00:58:40.002Z,2.86
2023-04-19T00:59:52.629Z,2.87
2023-04-19T01:00:57.132Z,2.58
2023-04-19T01:02:01.749Z,2.55
2023-04-19T01:03:06.375Z,2.96
2023-04-19T01:04:11.639Z,2.61
2023-04-19T01:05:18.882Z,2.69
2023-04-19T01:06:23.732Z,2.98
2023-04-19T01:07:28.643Z,2.59
2023-04-19T01:08:40.685Z,2.43
2023-04-19T01:09:48.652Z,2.62
2023-04-19T01:10:59.214Z,2.84
2023-04-19T01:12:19.737Z,2.89
2023-04-19T01:13:25.450Z,2.78
2023-04-19T01:14:28.814Z,2.30
2023-04-19T01:15:42.369Z,3.12
2023-04-19T01:16:51.460Z,2.39
2023-04-19T01:18:13.144Z,2.95
2023-04-19T01:19:17.814Z,2.81
2023-04-19T01:20:25.467Z,2.62
2023-04-19T01:21:31.567Z,2.43
2023-04-19T01:22:41.809Z,2.56
2023-04-19T01:25:13.980Z,2.55
2023-04-19T01:26:18.789Z,2.86
2023-04-19T01:31:45.297Z,2.13
2023-04-19T01:34:15.570Z,2.54
2023-04-19T01:35:24.268Z,2.69
2023-04-19T01:36:31.787Z,2.39
2023-04-19T01:39:04.781Z,2.61
2023-04-19T01:41:37.584Z,2.43
2023-04-19T01:42:41.730Z,3.42
2023-04-19T01:43:55.363Z,2.84
2023-04-19T01:45:00.899Z,2.77
2023-04-19T01:46:17.234Z,2.68
2023-04-19T01:47:29.741Z,2.74
2023-04-19T01:48:53.169Z,2.39
2023-04-19T01:51:09.519Z,3.23
2023-04-19T01:52:14.368Z,3.05
2023-04-19T01:53:16.837Z,2.74
2023-04-19T01:54:20.640Z,3.05
2023-04-19T01:55:26.993Z,3.35
2023-04-19T01:56:31.782Z,3.75
2023-04-19T01:57:41.980Z,3.04
2023-04-19T01:58:57.131Z,3.45
2023-04-19T02:00:09.475Z,2.92
2023-04-19T02:02:40.561Z,3.58
2023-04-19T02:04:02.614Z,3.06
2023-04-19T02:05:15.996Z,3.26
2023-04-19T02:06:25.372Z,2.82
2023-04-19T02:07:47.210Z,3.06
2023-04-19T02:08:53.352Z,3.04
2023-04-19T02:10:03.847Z,2.86
2023-04-19T02:11:21.361Z,3.46
2023-04-19T02:12:25.153Z,2.61
2023-04-19T02:15:02.408Z,3.18
2023-04-19T02:16:10.885Z,2.99
2023-04-19T02:17:29.341Z,3.33
2023-04-19T02:18:39.750Z,3.25
2023-04-19T02:19:45.171Z,3.57
2023-04-19T02:22:12.586Z,3.18
2023-04-19T02:23:35.832Z,3.58
2023-04-19T02:27:19.541Z,3.16
2023-04-19T02:28:27.359Z,3.47
2023-04-19T02:29:30.518Z,3.34
2023-04-19T02:35:05.089Z,4.61
2023-04-19T02:36:11.512Z,3.75
2023-04-19T02:37:17.504Z,3.09
2023-04-19T02:38:25.870Z,3.28
2023-04-19T02:39:31.663Z,3.63
2023-04-19T02:40:38.411Z,3.54
2023-04-19T02:41:43.465Z,3.33
2023-04-19T02:42:51.436Z,3.37
2023-04-19T02:44:08.706Z,3.65
2023-04-19T02:45:13.102Z,3.41
2023-04-19T02:46:27.129Z,3.17
2023-04-19T02:47:38.192Z,3.70
2023-04-19T02:51:31.260Z,3.17
2023-04-19T02:52:36.007Z,3.29
2023-04-19T02:53:44.844Z,3.11
2023-04-19T02:54:53.632Z,3.17
2023-04-19T02:57:12.922Z,3.64
2023-04-19T02:58:21.987Z,3.32
2023-04-19T02:59:27.217Z,3.82
2023-04-19T03:00:29.947Z,3.56
2023-04-19T03:01:40.327Z,3.37
2023-04-19T03:02:46.803Z,3.87
2023-04-19T03:03:53.948Z,3.83
2023-04-19T03:04:57.990Z,3.82
2023-04-19T03:06:12.983Z,3.76
2023-04-19T03:07:22.195Z,3.55
2023-04-19T03:08:27.564Z,3.46
2023-04-19T03:09:30.826Z,3.73
2023-04-19T03:10:41.565Z,3.62
2023-04-19T03:11:52.464Z,3.66
2023-04-19T03:12:59.605Z,3.61
2023-04-19T03:14:08.750Z,4.39
2023-04-19T03:15:12.560Z,4.32
2023-04-19T03:16:17.794Z,3.86
2023-04-19T03:17:21.005Z,4.32
2023-04-19T03:18:25.481Z,3.92
2023-04-19T03:19:31.718Z,4.08
2023-04-19T03:20:35.450Z,3.99
2023-04-19T03:21:43.175Z,3.91
2023-04-19T03:22:46.584Z,4.00
2023-04-19T03:23:50.012Z,3.86
2023-04-19T03:24:52.072Z,3.66
2023-04-19T03:25:58.370Z,4.52
2023-04-19T03:27:02.668Z,3.73
2023-04-19T03:28:12.424Z,3.64
2023-04-19T03:29:20.440Z,3.67
2023-04-19T03:30:29.862Z,3.48
2023-04-19T03:31:43.619Z,3.49
2023-04-19T03:32:49.676Z,4.12
2023-04-19T03:33:54.422Z,3.66
2023-04-19T03:34:59.122Z,2.82
2023-04-19T03:36:03.352Z,3.64
2023-04-19T03:37:07.626Z,3.38
2023-04-19T03:38:11.636Z,3.63
2023-04-19T03:39:14.666Z,3.24
2023-04-19T03:41:46.049Z,3.24
2023-04-19T03:42:50.690Z,3.22
2023-04-19T03:43:55.032Z,3.21
2023-04-19T03:44:58.133Z,2.78
2023-04-19T03:46:13.851Z,3.59
2023-04-19T03:47:22.016Z,3.42
2023-04-19T03:48:25.496Z,3.51
2023-04-19T03:49:34.236Z,3.27
2023-04-19T03:50:41.445Z,3.20
2023-04-19T03:51:44.410Z,2.93
2023-04-19T03:54:13.021Z,3.97
2023-04-19T03:56:40.750Z,3.32
2023-04-19T03:57:46.599Z,3.44
2023-04-19T03:58:51.481Z,3.84
2023-04-19T03:59:58.587Z,4.11
2023-04-19T04:01:01.374Z,3.84
2023-04-19T04:02:05.522Z,4.05
2023-04-19T04:03:09.985Z,4.16
2023-04-19T04:04:21.962Z,4.19
2023-04-19T04:05:28.823Z,3.78
2023-04-19T04:06:34.119Z,4.63
2023-04-19T04:07:38.436Z,4.07
2023-04-19T04:08:43.147Z,3.64
2023-04-19T04:09:46.014Z,3.89
2023-04-19T04:10:49.190Z,4.10
2023-04-19T04:11:53.159Z,3.73
2023-04-19T04:12:57.261Z,4.82
2023-04-19T04:13:59.595Z,3.51
2023-04-19T04:15:03.794Z,4.32
2023-04-19T04:16:10.437Z,4.34
2023-04-19T04:17:13.663Z,3.77
2023-04-19T04:18:18.260Z,3.81
2023-04-19T04:19:39.822Z,19.58
2023-04-19T04:20:44.586Z,4.93
2023-04-19T04:21:47.493Z,4.84
2023-04-19T04:22:51.430Z,3.87
2023-04-19T04:23:56.551Z,3.65
2023-04-19T04:25:02.853Z,3.61
2023-04-19T04:26:07.904Z,3.57
2023-04-19T04:27:11.008Z,3.09
2023-04-19T04:28:16.158Z,2.75
2023-04-19T04:29:20.383Z,3.38
2023-04-19T04:30:27.756Z,3.71
2023-04-19T04:31:30.004Z,3.36
2023-04-19T04:32:33.582Z,3.25
2023-04-19T04:33:38.141Z,3.76
2023-04-19T04:34:47.033Z,3.30
2023-04-19T04:35:49.548Z,3.04
2023-04-19T04:36:54.156Z,3.49
2023-04-19T04:37:56.586Z,3.27
2023-04-19T04:39:01.842Z,3.81
2023-04-19T04:40:07.375Z,3.15
2023-04-19T04:41:12.362Z,3.81
2023-04-19T04:42:19.911Z,3.34
2023-04-19T04:43:27.700Z,3.80
2023-04-19T04:44:31.611Z,3.58
2023-04-19T04:45:36.160Z,3.28
2023-04-19T04:46:43.858Z,3.45
2023-04-19T04:47:47.469Z,3.77
2023-04-19T04:48:51.660Z,3.08
2023-04-19T04:49:56.952Z,3.14
2023-04-19T04:51:00.179Z,2.54
2023-04-19T04:52:07.694Z,2.67
2023-04-19T04:53:15.523Z,2.83
2023-04-19T04:54:21.167Z,2.63
2023-04-19T04:55:24.416Z,2.64
2023-04-19T04:56:31.255Z,2.61
2023-04-19T04:57:36.053Z,2.36
2023-04-19T04:58:41.653Z,3.69
2023-04-19T04:59:47.412Z,3.38
2023-04-19T05:00:50.530Z,2.65
2023-04-19T05:01:54.769Z,2.48
2023-04-19T05:02:58.756Z,2.59
2023-04-19T05:04:00.963Z,2.44
2023-04-19T05:05:03.696Z,2.46
2023-04-19T05:06:07.701Z,1.87
2023-04-19T05:07:10.418Z,2.25
2023-04-19T05:08:14.527Z,2.64
2023-04-19T05:09:23.555Z,2.84
2023-04-19T05:10:26.844Z,2.55
2023-04-19T05:11:30.242Z,2.11
2023-04-19T05:12:36.890Z,2.79
2023-04-19T05:13:42.832Z,2.77
2023-04-19T05:15:01.818Z,2.43
2023-04-19T05:16:08.462Z,2.38
2023-04-19T05:17:12.434Z,2.34
2023-04-19T05:18:18.138Z,2.39
2023-04-19T05:19:25.454Z,2.45
2023-04-19T05:20:29.846Z,1.98
2023-04-19T05:21:33.522Z,2.56
2023-04-19T05:22:36.098Z,2.12
2023-04-19T05:23:40.594Z,2.41
2023-04-19T05:24:44.929Z,2.81
2023-04-19T05:25:49.209Z,1.99
2023-04-19T05:26:55.070Z,2.44
2023-04-19T05:28:00.057Z,2.41
2023-04-19T05:29:02.535Z,2.26
2023-04-19T05:30:06.604Z,2.31
2023-04-19T05:31:09.000Z,2.74
2023-04-19T05:32:14.805Z,2.37
2023-04-19T05:33:16.869Z,2.14
2023-04-19T05:34:22.216Z,2.65
2023-04-19T05:35:25.874Z,2.14
2023-04-19T05:36:30.194Z,2.11
2023-04-19T05:37:34.425Z,2.63
2023-04-19T05:38:42.330Z,1.91
2023-04-19T05:39:49.578Z,1.92
2023-04-19T05:40:51.947Z,2.09
2023-04-19T05:41:57.212Z,2.39
2023-04-19T05:42:59.363Z,2.26
2023-04-19T05:44:03.372Z,2.08
2023-04-19T05:45:11.078Z,2.35
2023-04-19T05:46:14.965Z,2.58
2023-04-19T05:47:19.853Z,2.02
2023-04-19T05:48:22.899Z,2.16
2023-04-19T05:49:28.448Z,2.20
2023-04-19T05:50:32.654Z,2.46
2023-04-19T05:51:35.122Z,2.01
2023-04-19T05:52:37.288Z,1.91
2023-04-19T05:53:42.557Z,2.28
2023-04-19T05:54:47.009Z,2.31
2023-04-19T05:55:50.125Z,1.91
2023-04-19T05:56:53.056Z,2.46
2023-04-19T05:57:58.531Z,2.08
2023-04-19T05:59:02.257Z,2.38
2023-04-19T06:00:08.538Z,2.44
2023-04-19T06:01:12.085Z,2.37
2023-04-19T06:02:16.125Z,3.28
2023-04-19T06:03:19.946Z,2.56
2023-04-19T06:04:25.044Z,2.78
2023-04-19T06:05:29.201Z,2.26
2023-04-19T06:06:32.482Z,3.11
2023-04-19T06:07:40.713Z,2.47
2023-04-19T06:08:42.766Z,2.37
2023-04-19T06:09:49.837Z,2.36
2023-04-19T06:10:56.983Z,2.32
2023-04-19T06:11:57.876Z,2.34
2023-04-19T06:13:01.892Z,2.59
2023-04-19T06:14:06.024Z,2.56
2023-04-19T06:15:09.897Z,2.56
2023-04-19T06:16:13.039Z,2.19
2023-04-19T06:17:15.307Z,2.55
2023-04-19T06:18:19.045Z,2.17
2023-04-19T06:19:21.236Z,2.56
2023-04-19T06:20:23.693Z,3.01
2023-04-19T06:21:26.340Z,2.49
2023-04-19T06:22:29.029Z,2.43
2023-04-19T06:23:31.212Z,2.62
2023-04-19T06:24:35.364Z,2.01
2023-04-19T06:25:37.507Z,2.21
2023-04-19T06:26:39.803Z,2.07
2023-04-19T06:27:41.944Z,2.51
2023-04-19T06:28:44.552Z,2.42
2023-04-19T06:29:47.593Z,2.62
2023-04-19T06:30:50.714Z,1.78
2023-04-19T06:31:53.107Z,2.13
2023-04-19T06:32:57.674Z,2.25
2023-04-19T06:34:03.805Z,2.50
2023-04-19T06:35:07.649Z,2.37
2023-04-19T06:36:11.457Z,2.31
2023-04-19T06:37:14.807Z,2.86
2023-04-19T06:38:16.951Z,2.39
2023-04-19T06:39:21.347Z,2.75
2023-04-19T06:40:23.559Z,2.14
2023-04-19T06:41:25.668Z,2.43
2023-04-19T06:42:27.817Z,1.96
2023-04-19T06:43:30.710Z,2.29
2023-04-19T06:44:32.979Z,1.92
2023-04-19T06:45:36.044Z,2.77
2023-04-19T06:46:40.073Z,2.15
2023-04-19T06:47:42.746Z,2.59
2023-04-19T06:48:45.605Z,2.55
2023-04-19T06:49:47.860Z,2.95
2023-04-19T06:50:50.029Z,2.54
2023-04-19T06:51:52.012Z,2.35
2023-04-19T06:52:56.335Z,2.57
2023-04-19T06:53:59.828Z,2.99
2023-04-19T06:55:04.986Z,2.29
2023-04-19T06:56:11.078Z,2.04
2023-04-19T06:57:13.367Z,2.05
2023-04-19T06:58:16.558Z,2.06
2023-04-19T06:59:21.014Z,2.59
2023-04-19T07:00:26.285Z,2.69
2023-04-19T07:01:30.846Z,2.19
2023-04-19T07:02:33.181Z,2.26
2023-04-19T07:03:40.587Z,2.28
2023-04-19T07:04:45.367Z,2.49
2023-04-19T07:05:50.148Z,2.43
2023-04-19T07:06:56.327Z,2.70
2023-04-19T07:07:59.987Z,2.60
2023-04-19T07:09:04.656Z,2.40
2023-04-19T07:10:12.101Z,2.46
2023-04-19T07:11:18.615Z,2.63
2023-04-19T07:12:23.570Z,2.42
2023-04-19T07:13:30.712Z,3.26
2023-04-19T07:14:34.317Z,3.17
2023-04-19T07:15:37.435Z,7.89
2023-04-19T07:16:41.533Z,2.98
2023-04-19T07:17:45.039Z,3.40
2023-04-19T07:18:47.516Z,2.72
2023-04-19T07:19:51.028Z,2.84
2023-04-19T07:20:56.245Z,3.78
2023-04-19T07:21:59.499Z,2.49
2023-04-19T07:23:03.202Z,2.51
2023-04-19T07:24:06.744Z,1.96
2023-04-19T07:25:10.604Z,2.22
2023-04-19T07:26:17.008Z,2.18
2023-04-19T07:27:21.340Z,2.48
2023-04-19T07:28:24.548Z,2.83
2023-04-19T07:29:29.649Z,2.06
2023-04-19T07:30:33.236Z,2.57
2023-04-19T07:31:37.583Z,3.08
2023-04-19T07:32:41.313Z,2.21
2023-04-19T07:33:45.574Z,2.42
2023-04-19T07:34:50.744Z,2.58
2023-04-19T07:35:55.655Z,2.47
2023-04-19T07:36:58.427Z,2.27
2023-04-19T07:38:00.770Z,2.65
2023-04-19T07:39:05.595Z,2.14
2023-04-19T07:40:10.915Z,2.52
2023-04-19T07:41:14.808Z,2.60
2023-04-19T07:42:17.108Z,2.38
2023-04-19T07:43:19.805Z,2.66
2023-04-19T07:44:23.427Z,2.13
2023-04-19T07:45:28.417Z,2.78
2023-04-19T07:46:30.863Z,2.01
2023-04-19T07:47:33.390Z,2.17
2023-04-19T07:48:36.176Z,2.15
2023-04-19T07:49:39.213Z,2.30
2023-04-19T07:50:43.464Z,2.33
2023-04-19T07:51:45.711Z,2.47
2023-04-19T07:52:48.059Z,2.37
2023-04-19T07:53:50.453Z,2.09
2023-04-19T07:54:53.040Z,2.89
2023-04-19T07:55:55.790Z,2.21
2023-04-19T07:56:58.781Z,2.11
2023-04-19T07:58:01.546Z,2.31
2023-04-19T07:59:08.605Z,1.91
2023-04-19T08:00:09.802Z,2.31
2023-04-19T08:01:12.527Z,2.34
2023-04-19T08:02:15.147Z,2.26
2023-04-19T08:03:20.107Z,3.27
2023-04-19T08:04:23.077Z,2.01
2023-04-19T08:05:26.322Z,2.04
2023-04-19T08:06:29.707Z,2.58
2023-04-19T08:07:32.265Z,2.27
2023-04-19T08:08:38.743Z,3.42
2023-04-19T08:09:42.925Z,2.48
2023-04-19T08:10:46.672Z,2.03
2023-04-19T08:11:49.184Z,3.03
2023-04-19T08:13:04.992Z,4.76
2023-04-19T08:14:06.834Z,18.78
2023-04-19T08:15:15.278Z,5.56
2023-04-19T08:17:23.912Z,2.87
2023-04-19T08:18:19.413Z,2.91
2023-04-19T08:19:26.617Z,2.30
2023-04-19T08:20:31.641Z,2.39
2023-04-19T08:21:40.599Z,2.09
2023-04-19T08:22:39.156Z,2.27
2023-04-19T08:23:47.974Z,2.30
2023-04-19T08:24:46.351Z,2.72
2023-04-19T08:25:48.618Z,3.45
2023-04-19T08:26:55.032Z,2.28
2023-04-19T08:27:59.858Z,2.69
2023-04-19T08:29:02.115Z,2.50
2023-04-19T08:30:07.284Z,2.16
2023-04-19T08:31:09.772Z,2.79
2023-04-19T08:32:13.115Z,2.52
2023-04-19T08:33:18.006Z,2.19
2023-04-19T08:34:21.991Z,2.43
2023-04-19T08:35:24.196Z,2.86
2023-04-19T08:36:36.006Z,2.40
2023-04-19T08:37:31.953Z,2.41
2023-04-19T08:38:35.995Z,2.76
2023-04-19T08:39:39.607Z,2.45
2023-04-19T08:40:48.304Z,2.62
2023-04-19T08:42:02.591Z,3.41
2023-04-19T08:42:59.466Z,2.77
2023-04-19T08:44:03.730Z,2.11
2023-04-19T08:46:14.504Z,2.20
2023-04-19T08:47:23.604Z,2.73
2023-04-19T08:48:24.151Z,3.51
2023-04-19T08:49:30.008Z,2.37
2023-04-19T08:51:04.356Z,2.29
2023-04-19T08:51:59.090Z,2.53
2023-04-19T08:53:16.094Z,2.26
2023-04-19T08:54:16.070Z,2.24
2023-04-19T08:55:20.159Z,3.19
2023-04-19T08:56:34.959Z,2.31
2023-04-19T08:57:32.666Z,6.92
2023-04-19T08:59:39.873Z,2.64
2023-04-19T09:00:44.497Z,2.89
2023-04-19T09:01:49.384Z,2.17
2023-04-19T09:02:57.168Z,2.52
2023-04-19T09:04:20.759Z,1.83
2023-04-19T09:05:10.170Z,2.46
2023-04-19T09:06:15.586Z,2.59
2023-04-19T09:07:28.791Z,2.16
2023-04-19T09:08:33.403Z,2.15
2023-04-19T09:09:45.529Z,5.66
2023-04-19T09:10:45.424Z,2.60
2023-04-19T09:11:51.117Z,4.63
2023-04-19T09:13:02.705Z,1.89
2023-04-19T09:14:11.634Z,2.42
2023-04-19T09:15:13.955Z,2.04
2023-04-19T09:16:25.985Z,2.71
2023-04-19T09:17:33.714Z,2.48
2023-04-19T09:18:53.290Z,1.97
2023-04-19T09:19:51.914Z,1.74
2023-04-19T09:20:54.143Z,2.36
2023-04-19T09:21:57.732Z,3.01
2023-04-19T09:23:04.498Z,2.56
2023-04-19T09:24:07.825Z,2.11
2023-04-19T09:25:41.429Z,2.51
2023-04-19T09:26:23.471Z,3.02
2023-04-19T09:27:32.840Z,2.81
2023-04-19T09:28:35.011Z,2.62
2023-04-19T09:29:37.652Z,2.39
2023-04-19T09:30:58.184Z,3.09
2023-04-19T09:31:58.473Z,2.84
2023-04-19T09:33:00.748Z,2.61
2023-04-19T09:34:17.377Z,2.27
2023-04-19T09:35:23.279Z,2.71
2023-04-19T09:36:30.766Z,2.73
2023-04-19T09:37:57.407Z,2.26
2023-04-19T09:38:50.551Z,2.27
2023-04-19T09:41:15.552Z,2.83
2023-04-19T09:42:28.065Z,2.64
2023-04-19T09:43:53.770Z,3.19
2023-04-19T09:45:02.184Z,1.93
2023-04-19T09:47:27.271Z,3.29
2023-04-19T09:48:30.174Z,2.59
2023-04-19T09:51:01.778Z,2.38
2023-04-19T09:52:00.608Z,2.98
2023-04-19T09:53:05.254Z,3.04
2023-04-19T09:54:12.021Z,2.81
2023-04-19T09:55:26.967Z,3.73
2023-04-19T09:56:23.772Z,1.90
2023-04-19T09:57:25.999Z,2.39
2023-04-19T09:59:35.556Z,2.01
2023-04-19T10:00:48.918Z,3.47
2023-04-19T10:01:59.028Z,2.48
2023-04-19T10:03:14.740Z,3.04
2023-04-19T10:04:33.302Z,2.63
2023-04-19T10:05:30.912Z,3.27
2023-04-19T10:06:58.284Z,3.00
2023-04-19T10:09:07.912Z,3.21
2023-04-19T10:10:20.461Z,2.96
2023-04-19T10:11:22.490Z,2.87
2023-04-19T10:13:31.982Z,3.55
2023-04-19T10:14:37.452Z,5.02
2023-04-19T10:15:51.194Z,5.75
2023-04-19T10:16:52.500Z,3.34
2023-04-19T10:17:57.786Z,3.39
2023-04-19T10:19:05.432Z,2.87
2023-04-19T10:20:15.432Z,3.47
2023-04-19T10:21:21.706Z,2.80
2023-04-19T10:22:28.659Z,3.40
2023-04-19T10:23:32.139Z,3.64
2023-04-19T10:24:34.777Z,4.08
2023-04-19T10:25:38.254Z,8.86
2023-04-19T10:27:16.962Z,2.78
2023-04-19T10:28:18.043Z,2.56
2023-04-19T10:31:04.718Z,2.71
2023-04-19T10:32:11.755Z,2.66
2023-04-19T10:33:17.763Z,3.02
2023-04-19T10:34:37.703Z,3.44
2023-04-19T10:35:42.816Z,2.85
2023-04-19T10:36:45.273Z,2.61
2023-04-19T10:38:06.788Z,2.93
2023-04-19T10:39:16.450Z,3.37
2023-04-19T10:40:22.612Z,2.68
2023-04-19T10:41:29.057Z,2.61
2023-04-19T10:43:09.054Z,2.80
2023-04-19T10:44:14.587Z,2.38
2023-04-19T10:45:36.257Z,3.26
2023-04-19T10:46:39.614Z,3.31
2023-04-19T10:49:01.418Z,4.51
2023-04-19T10:50:09.824Z,4.51
2023-04-19T10:51:17.007Z,4.30
2023-04-19T10:52:28.368Z,3.38
2023-04-19T10:54:58.588Z,3.96
2023-04-19T10:56:01.367Z,3.70
2023-04-19T10:57:05.699Z,3.56
2023-04-19T10:58:16.079Z,6.32
2023-04-19T10:59:20.087Z,3.53
2023-04-19T11:00:23.974Z,5.15
2023-04-19T11:01:44.809Z,3.94
2023-04-19T11:02:48.633Z,3.09
2023-04-19T11:03:54.638Z,4.11
2023-04-19T11:05:01.069Z,3.08
2023-04-19T11:06:19.693Z,3.66
2023-04-19T11:07:25.758Z,4.16
2023-04-19T11:08:29.476Z,3.58
2023-04-19T11:09:38.094Z,4.82
2023-04-19T11:10:43.710Z,3.88
2023-04-19T11:11:48.144Z,4.00
2023-04-19T11:12:52.284Z,3.21
2023-04-19T11:13:58.263Z,3.94
2023-04-19T11:15:07.862Z,3.20
2023-04-19T11:16:15.924Z,4.30
2023-04-19T11:17:24.117Z,3.64
2023-04-19T11:18:30.383Z,3.81
2023-04-19T11:19:33.302Z,4.17
2023-04-19T11:20:40.911Z,3.73
2023-04-19T11:21:46.088Z,3.14
2023-04-19T11:23:09.993Z,3.29
2023-04-19T11:24:18.328Z,3.41
2023-04-19T11:25:23.366Z,3.66
2023-04-19T11:26:31.869Z,3.03
2023-04-19T11:27:37.717Z,3.33
2023-04-19T11:28:48.760Z,2.99
2023-04-19T11:29:54.148Z,3.09
2023-04-19T11:30:59.586Z,3.31
2023-04-19T11:32:07.120Z,2.96
2023-04-19T11:33:13.989Z,4.42
2023-04-19T11:34:22.218Z,3.36
2023-04-19T11:35:27.643Z,3.23
2023-04-19T11:36:35.557Z,3.22
2023-04-19T11:37:44.046Z,3.67
2023-04-19T11:38:52.750Z,3.25
2023-04-19T11:39:55.626Z,3.13
2023-04-19T11:41:09.004Z,4.29
2023-04-19T11:42:24.836Z,3.34
2023-04-19T11:44:01.326Z,4.34
2023-04-19T11:44:52.039Z,3.41
2023-04-19T11:47:06.895Z,3.60
2023-04-19T11:48:17.581Z,4.30
2023-04-19T11:49:30.994Z,3.79
2023-04-19T11:50:45.709Z,7.83
2023-04-19T11:51:57.576Z,4.76
2023-04-19T11:53:15.333Z,3.53
2023-04-19T11:54:20.792Z,3.49
2023-04-19T11:55:25.536Z,4.27
2023-04-19T11:56:30.013Z,4.54
2023-04-19T11:57:32.207Z,3.48
2023-04-19T11:58:42.028Z,3.29
2023-04-19T11:59:51.243Z,3.79
2023-04-19T12:00:57.362Z,2.67
2023-04-19T12:02:11.700Z,3.48
2023-04-19T12:03:16.184Z,4.02
2023-04-19T12:04:23.987Z,4.26
2023-04-19T12:05:30.144Z,3.66
2023-04-19T12:06:34.253Z,4.06
2023-04-19T12:08:04.371Z,4.20
2023-04-19T12:09:06.956Z,4.57
2023-04-19T12:10:14.585Z,4.88
2023-04-19T12:11:20.847Z,4.85
2023-04-19T12:14:13.753Z,4.12
2023-04-19T12:15:17.162Z,4.88
2023-04-19T12:16:23.134Z,5.39
2023-04-19T12:17:26.310Z,5.28
2023-04-19T12:18:44.332Z,4.80
2023-04-19T12:19:47.690Z,5.02
2023-04-19T12:20:52.402Z,4.64
2023-04-19T12:22:01.646Z,5.56
2023-04-19T12:23:04.840Z,4.31
2023-04-19T12:24:10.987Z,5.33
2023-04-19T12:25:13.319Z,5.71
2023-04-19T12:26:15.988Z,4.59
2023-04-19T12:27:19.130Z,4.47
2023-04-19T12:28:30.897Z,6.01
2023-04-19T12:29:38.920Z,4.75
2023-04-19T12:30:45.406Z,5.79
2023-04-19T12:31:53.639Z,5.25
2023-04-19T12:33:09.709Z,5.11
2023-04-19T12:34:16.639Z,5.83
2023-04-19T12:35:22.207Z,6.33
2023-04-19T12:36:26.146Z,5.11
2023-04-19T12:37:34.868Z,5.22
2023-04-19T12:38:39.266Z,5.16
2023-04-19T12:39:44.118Z,4.67
2023-04-19T12:40:51.631Z,5.71
2023-04-19T12:41:59.181Z,5.51
2023-04-19T12:43:11.584Z,5.13
2023-04-19T12:44:11.401Z,5.32
2023-04-19T12:45:16.134Z,5.32
2023-04-19T12:46:20.680Z,5.50
2023-04-19T12:47:26.367Z,4.97
2023-04-19T12:48:31.561Z,5.19
2023-04-19T12:49:39.000Z,6.35
2023-04-19T12:50:49.853Z,5.49
2023-04-19T12:51:54.587Z,5.49
2023-04-19T12:53:01.545Z,4.98
2023-04-19T12:54:07.019Z,4.69
2023-04-19T12:55:15.912Z,5.39
2023-04-19T12:56:24.259Z,5.39
2023-04-19T12:57:26.609Z,5.83
2023-04-19T12:58:35.715Z,5.78
2023-04-19T12:59:40.050Z,6.89
2023-04-19T13:00:45.661Z,5.21
2023-04-19T13:01:52.907Z,8.18
2023-04-19T13:03:08.860Z,6.87
2023-04-19T13:04:17.073Z,7.20
2023-04-19T13:05:23.528Z,7.04
2023-04-19T13:06:35.092Z,6.31
2023-04-19T13:09:15.731Z,6.87
2023-04-19T13:10:19.436Z,6.63
2023-04-19T13:11:28.061Z,6.73
2023-04-19T13:12:48.236Z,6.04
2023-04-19T13:13:56.918Z,5.17
2023-04-19T13:15:06.781Z,4.72
2023-04-19T13:16:10.984Z,5.89
2023-04-19T13:17:19.638Z,5.13
2023-04-19T13:18:25.780Z,6.34
2023-04-19T13:19:29.299Z,6.31
2023-04-19T13:20:40.513Z,10.83
2023-04-19T13:21:39.886Z,6.88
2023-04-19T13:22:44.312Z,7.56
2023-04-19T13:23:48.546Z,5.41
2023-04-19T13:24:55.040Z,5.76
2023-04-19T13:25:59.601Z,6.35
2023-04-19T13:27:23.800Z,5.82
2023-04-19T13:28:28.217Z,5.13
2023-04-19T13:29:42.778Z,5.01
2023-04-19T13:30:55.951Z,4.38
2023-04-19T13:31:59.768Z,5.01
2023-04-19T13:33:16.027Z,5.20
2023-04-19T13:34:37.608Z,4.82
2023-04-19T13:35:40.981Z,4.48
2023-04-19T13:36:59.061Z,5.36
2023-04-19T13:38:02.674Z,7.48
2023-04-19T13:39:19.380Z,5.91
2023-04-19T13:40:28.650Z,5.21
2023-04-19T13:43:01.195Z,4.70
2023-04-19T13:44:09.853Z,5.39
2023-04-19T13:45:14.216Z,5.33
2023-04-19T13:46:17.555Z,5.75
2023-04-19T13:47:28.200Z,5.80
2023-04-19T13:48:31.985Z,5.13
2023-04-19T13:49:39.783Z,5.78
2023-04-19T13:50:47.772Z,4.74
2023-04-19T13:51:56.406Z,4.73
2023-04-19T13:53:05.747Z,4.92
2023-04-19T13:54:11.146Z,5.58
2023-04-19T13:55:20.689Z,4.97
2023-04-19T13:56:28.929Z,5.69
2023-04-19T13:57:33.027Z,5.39
2023-04-19T14:00:02.154Z,6.00
2023-04-19T14:01:06.759Z,6.14
2023-04-19T14:02:13.175Z,5.38
2023-04-19T14:03:22.867Z,4.79
2023-04-19T14:04:29.751Z,5.56
2023-04-19T14:05:31.902Z,5.57
2023-04-19T14:06:34.305Z,4.75
2023-04-19T14:07:41.732Z,4.73
2023-04-19T14:08:45.860Z,3.76
2023-04-19T14:09:49.652Z,4.87
2023-04-19T14:10:55.657Z,5.06
2023-04-19T14:12:07.513Z,4.68
2023-04-19T14:13:08.038Z,5.30
2023-04-19T14:14:11.320Z,6.06
2023-04-19T14:15:22.231Z,4.75
2023-04-19T14:16:28.033Z,4.02
2023-04-19T14:17:30.679Z,4.39
2023-04-19T14:18:40.589Z,4.36
2023-04-19T14:19:48.604Z,4.76
2023-04-19T14:20:53.991Z,4.36
2023-04-19T14:21:57.264Z,4.65
2023-04-19T14:23:01.398Z,4.13
2023-04-19T14:24:05.261Z,3.94
2023-04-19T14:25:13.817Z,4.45
2023-04-19T14:26:18.151Z,4.39
2023-04-19T14:27:21.388Z,4.49
2023-04-19T14:28:30.853Z,5.00
2023-04-19T14:29:38.777Z,4.36
2023-04-19T14:30:46.048Z,3.93
2023-04-19T14:33:20.702Z,4.49
2023-04-19T14:34:27.285Z,4.16
2023-04-19T14:35:37.424Z,3.15
2023-04-19T14:36:45.172Z,3.52
2023-04-19T14:37:55.879Z,4.32
2023-04-19T14:39:02.802Z,3.27
2023-04-19T14:40:25.995Z,3.68
2023-04-19T14:41:33.148Z,4.04
2023-04-19T14:42:44.088Z,4.02
2023-04-19T14:43:48.363Z,3.30
2023-04-19T14:44:53.409Z,3.69
2023-04-19T14:46:07.081Z,5.05
2023-04-19T14:47:22.141Z,4.42
2023-04-19T14:48:37.548Z,3.62
2023-04-19T14:49:47.863Z,3.56
2023-04-19T14:52:19.490Z,4.61
2023-04-19T14:53:22.980Z,3.69
2023-04-19T14:54:31.681Z,3.57
2023-04-19T14:55:40.668Z,3.52
2023-04-19T14:56:45.700Z,3.73
2023-04-19T14:57:52.857Z,4.12
2023-04-19T14:59:00.158Z,3.89
2023-04-19T15:00:05.865Z,4.61
2023-04-19T15:01:26.475Z,3.43
2023-04-19T15:02:28.819Z,4.81
2023-04-19T15:03:34.829Z,4.09
2023-04-19T15:04:44.522Z,4.16
2023-04-19T15:05:48.058Z,4.47
2023-04-19T15:06:56.629Z,4.04
2023-04-19T15:08:26.844Z,4.64
2023-04-19T15:09:23.700Z,5.99
2023-04-19T15:10:26.645Z,5.88
2023-04-19T15:11:31.819Z,5.56
2023-04-19T15:12:37.061Z,4.97
2023-04-19T15:13:40.066Z,4.76
2023-04-19T15:14:44.297Z,6.82
2023-04-19T15:15:46.888Z,4.85
2023-04-19T15:16:49.358Z,6.86
2023-04-19T15:17:56.463Z,10.76
2023-04-19T15:19:02.912Z,5.19
2023-04-19T15:20:06.570Z,4.36
2023-04-19T15:21:09.590Z,3.89
2023-04-19T15:22:14.231Z,3.69
2023-04-19T15:23:16.292Z,3.81
2023-04-19T15:24:18.404Z,3.06
2023-04-19T15:25:20.404Z,3.73
2023-04-19T15:26:22.422Z,14.71
2023-04-19T15:27:24.470Z,14.82
2023-04-19T15:28:27.188Z,7.82
2023-04-19T15:29:30.457Z,9.19
2023-04-19T15:30:32.488Z,4.78
2023-04-19T15:31:34.948Z,3.97
2023-04-19T15:32:37.060Z,4.30
2023-04-19T15:33:40.895Z,4.30
2023-04-19T15:34:45.833Z,3.84
2023-04-19T15:35:54.153Z,4.31
2023-04-19T15:36:56.392Z,4.48
2023-04-19T15:37:58.521Z,4.11
2023-04-19T15:39:02.208Z,4.81
2023-04-19T15:40:05.674Z,4.26
2023-04-19T15:41:07.752Z,4.92
2023-04-19T15:42:09.732Z,5.53
2023-04-19T15:43:11.913Z,4.93
2023-04-19T15:44:13.760Z,5.90
2023-04-19T15:45:15.839Z,6.51
2023-04-19T15:46:17.997Z,7.51
2023-04-19T15:47:19.942Z,7.10
2023-04-19T15:48:22.119Z,9.31
2023-04-19T15:49:24.190Z,7.35
2023-04-19T15:50:26.164Z,8.82
2023-04-19T15:51:28.047Z,8.78
2023-04-19T15:52:29.921Z,9.57